GCLA

La Palma Airport

Sta Cruz de la Palma, La Palma Island, Spain
METAR GCLA 100600Z AUTO 33006KT CAVOK 18/16 Q1023
Observed Flight Rules
Dec-10 @ 06:00 UTC (29 minutes ago) Visual Flight Rules
Wind Visibility Clouds
330° at 6 knots 10,000+ meters
  • Clear skies
Temperatures Readings
Current 18°C / 64°F
Dewpoint 16°C / 61°F
Humidity 88%
Altimeter 30.21" Hg
Pressure 1023 hPa
Elevation 31
METAR GCLA 100600Z AUTO 33006KT CAVOK 18/16 Q1023
Observed Flight Rules
Dec-10 @ 06:00 UTC
(29 minutes ago)
VFR
Wind Visibility
330° at 6 knots 10,000+ meters
Clouds
  • Clear skies
Temperature Dewpoint
18°C / 64°F 16°C / 61°F
Humidity Altimeter Pressure
88% 30.21" Hg 1023 hPa